Celine — HBEF — position and weather

sailwx.info

Track history (hours):
 
Tides and Currents Weather Stations Pressure Air Temp Water Temp Dewpoint Dewpoint Depression Visibility Wind Speed Wind Dir Waves Ship Positions

Celine

Last reported at 2014-Sep-04 20:22 UTC. Time now 2014-Sep-18 01:41 UTC.
Position N 50°14' W 001°32'.
Warning: this ship's position is 13 days out of date.

Length 129 m; draft 7.7 m.

Type: Cargo ship. MMSI: 269057000.

Date/timePositionNaut miles runAvg speedWind from/ knotsBaromVisibWave heightAir tempDewpointWater temp
2014-Sep-04 20:22N 50°14' W 001°32'1214.7
2014-Sep-04 19:33N 50°17' W 001°13'1413.8
2014-Sep-04 18:34N 50°20' W 000°52'1312.6
2014-Sep-04 17:30N 50°24' W 000°32'1212.2
2014-Sep-04 16:34N 50°27' W 000°15'1412.0
2014-Sep-04 15:23N 50°30' E 000°07'1012.1
2014-Sep-04 14:33N 50°33' E 000°22'1312.7
2014-Sep-04 13:34N 50°38' E 000°40'1413.7
2014-Sep-04 12:33N 50°45' E 000°58'1414.1
2014-Sep-04 11:33N 50°54' E 001°17'1413.7
2014-Sep-04 10:34N 51°04' E 001°31'1312.6
2014-Sep-04 09:33N 51°13' E 001°45'1212.1
2014-Sep-04 08:33N 51°23' E 001°55'1212.1
2014-Sep-04 07:34N 51°33' E 002°07'1212.2
2014-Sep-04 06:33N 51°42' E 002°19'6913.7
2014-Sep-04 01:29N 52°36' E 003°30'1213.4
2014-Sep-04 00:33N 52°46' E 003°43'2612.5
2014-Sep-03 22:27N 53°05' E 004°13'1111.8
2014-Sep-03 21:33N 53°12' E 004°26'1212.1
2014-Sep-03 20:33N 53°23' E 004°34'1312.6
2014-Sep-03 19:33N 53°31' E 004°50'1414.4
2014-Sep-03 18:33N 53°36' E 005°13'1414.1
2014-Sep-03 17:33N 53°41' E 005°36'1413.7
2014-Sep-03 16:33N 53°45' E 005°58'5512.4
2014-Sep-03 12:06N 53°60' E 007°28'712.8
2014-Sep-03 11:33N 54°02' E 007°39'1413.6
2014-Sep-03 10:33N 54°01' E 008°02'1313.1
2014-Sep-03 09:33N 53°59' E 008°25'1313.4
2014-Sep-03 08:34N 53°52' E 008°44'1313.3
2014-Sep-03 07:33N 53°53' E 009°06'2 1.7
2014-Sep-03 06:33N 53°54' E 009°09'7 6.9
2014-Sep-03 05:33N 53°59' E 009°17'8 8.3
2014-Sep-03 04:33N 54°07' E 009°20'8 7.7
2014-Sep-03 03:33N 54°11' E 009°30'3 3.2
2014-Sep-03 02:33N 54°13' E 009°35'5 5.0
2014-Sep-03 01:33N 54°17' E 009°39'8 7.6
2014-Sep-03 00:32N 54°22' E 009°50'6 4.5
2014-Sep-02 23:13N 54°21' E 010°00'51 6.6
2014-Sep-02 15:31N 54°32' E 011°26'1313.9
2014-Sep-02 14:33N 54°26' E 011°47'1313.2
2014-Sep-02 13:33N 54°28' E 012°10'1313.1
2014-Sep-02 12:34N 54°39' E 012°21'1313.2
2014-Sep-02 11:33N 54°46' E 012°40'1313.0
2014-Sep-02 10:33N 54°51' E 013°01'1413.7
2014-Sep-02 09:33N 54°55' E 013°23'1313.6
2014-Sep-02 08:34N 55°00' E 013°45'1313.4
2014-Sep-02 07:33N 55°05' E 014°07'1313.3
2014-Sep-02 06:33N 55°16' E 014°22'1413.5
2014-Sep-02 05:33N 55°26' E 014°37'1313.3
2014-Sep-02 04:33N 55°32' E 014°58'1313.3
2014-Sep-02 03:33N 55°39' E 015°18'34312.7
2014-Sep-01 00:31N 59°35' E 023°02'1313.2
2014-Aug-31 23:33N 59°39' E 023°26'1313.2
2014-Aug-31 22:34N 59°43' E 023°51'1313.2
2014-Aug-31 21:33N 59°46' E 024°16'1313.4
2014-Aug-31 20:33N 59°49' E 024°43'4413.3
2014-Aug-31 17:15N 59°58' E 026°08'913.1
2014-Aug-31 16:33N 60°00' E 026°26'1313.1
2014-Aug-31 15:33N 59°60' E 026°52'1312.6
2014-Aug-31 14:33N 60°03' E 027°16'8411.9
2014-Aug-31 07:34N 59°55' E 030°02'6 1.9
2014-Aug-31 04:33N 59°54' E 030°14'0 0.0
2014-Aug-31 03:27N 59°54' E 030°14'0 0.0
2014-Aug-31 02:33N 59°54' E 030°14'0 0.0
2014-Aug-31 01:27N 59°54' E 030°14'0 0.0
2014-Aug-31 00:18N 59°54' E 030°14'0 0.0
2014-Aug-30 23:33N 59°54' E 030°14'0 0.0
2014-Aug-30 22:33N 59°54' E 030°14'0 0.0
2014-Aug-30 21:33N 59°54' E 030°14'0 0.0
2014-Aug-30 20:33N 59°54' E 030°14'0 0.0
2014-Aug-30 19:27N 59°54' E 030°14'0 0.0
2014-Aug-30 18:33N 59°54' E 030°14'0 0.0
2014-Aug-30 17:30N 59°54' E 030°14'0 0.0
2014-Aug-30 16:27N 59°54' E 030°14'0 0.0
2014-Aug-30 15:12N 59°54' E 030°14'0 0.0
2014-Aug-30 14:33N 59°54' E 030°14'0 0.0
2014-Aug-30 12:09N 59°54' E 030°14'0 0.0
2014-Aug-30 11:33N 59°54' E 030°14'0 0.0
2014-Aug-30 10:30N 59°54' E 030°14'0 0.0
2014-Aug-30 09:33N 59°54' E 030°14'0 0.0
2014-Aug-30 08:33N 59°54' E 030°14'0 0.0
2014-Aug-30 07:33N 59°54' E 030°14'0 0.0
2014-Aug-30 06:33N 59°54' E 030°14'0 0.0
2014-Aug-30 01:09N 59°54' E 030°14'0 0.0
2014-Aug-30 00:30N 59°54' E 030°14'0 0.0
2014-Aug-29 21:33N 59°54' E 030°14'0 0.0
2014-Aug-29 20:30N 59°54' E 030°14'0 0.0
2014-Aug-29 19:30N 59°54' E 030°14'0 0.0
2014-Aug-29 18:29N 59°54' E 030°14'0 0.0
2014-Aug-29 17:33N 59°54' E 030°14'0 0.0
2014-Aug-29 16:30N 59°54' E 030°14'0 0.0
2014-Aug-29 15:33N 59°54' E 030°14'0 0.0
2014-Aug-29 14:33N 59°54' E 030°14'0 0.0
2014-Aug-29 13:32N 59°54' E 030°14'0 0.0
2014-Aug-29 12:33N 59°54' E 030°14'0 0.0
2014-Aug-29 11:32N 59°54' E 030°14'0 0.0
2014-Aug-29 10:32N 59°54' E 030°14'0 0.0
2014-Aug-29 09:32N 59°54' E 030°14'0 0.0
2014-Aug-29 08:33N 59°54' E 030°14'0 0.0
2014-Aug-29 07:29N 59°54' E 030°14'0 0.0
2014-Aug-29 06:32N 59°54' E 030°14'0 0.0
2014-Aug-29 05:32N 59°54' E 030°14'0 0.0
2014-Aug-29 03:29N 59°54' E 030°14'0 0.0
2014-Aug-29 02:32N 59°54' E 030°14'0 0.0
2014-Aug-29 01:32N 59°54' E 030°14'0 0.0
2014-Aug-29 00:32N 59°54' E 030°14'0 0.0
2014-Aug-28 23:32N 59°54' E 030°14'0 0.0
2014-Aug-28 22:32N 59°54' E 030°14'0 0.0
2014-Aug-28 21:32N 59°54' E 030°14'0 0.0
2014-Aug-28 20:21N 59°54' E 030°14'0 0.0
2014-Aug-28 19:32N 59°54' E 030°14'0 0.0
2014-Aug-28 18:32N 59°54' E 030°14'0 0.0
2014-Aug-28 17:32N 59°54' E 030°14'0 0.0
2014-Aug-28 16:32N 59°54' E 030°14'0 0.0
2014-Aug-28 15:32N 59°54' E 030°14'0 0.0
2014-Aug-28 14:32N 59°54' E 030°14'0 0.0
2014-Aug-28 13:29N 59°54' E 030°14'0 0.0
2014-Aug-28 12:32N 59°54' E 030°14'0 0.0
2014-Aug-28 11:32N 59°54' E 030°14'0 0.0
2014-Aug-28 10:32N 59°54' E 030°14'0 0.0
2014-Aug-28 09:32N 59°54' E 030°14'0 0.0
2014-Aug-28 08:29N 59°54' E 030°14'0 0.0
2014-Aug-28 07:32N 59°54' E 030°14'0 0.0
2014-Aug-28 06:32N 59°54' E 030°14'0 0.0
2014-Aug-28 05:32N 59°54' E 030°14'0 0.0
2014-Aug-28 04:32N 59°54' E 030°14'0 0.0
2014-Aug-28 03:32N 59°54' E 030°14'0 0.0
2014-Aug-28 02:32N 59°54' E 030°14'0 0.0
2014-Aug-28 01:32N 59°54' E 030°14'0 0.0
2014-Aug-28 00:32N 59°54' E 030°14'0 0.0
2014-Aug-27 23:32N 59°54' E 030°14'0 0.0
2014-Aug-27 22:32N 59°54' E 030°14'0 0.0
2014-Aug-27 21:32N 59°54' E 030°14'0 0.0
2014-Aug-27 20:32N 59°54' E 030°14'0 0.0
2014-Aug-27 19:32N 59°54' E 030°14'0 0.0
2014-Aug-27 18:32N 59°54' E 030°14'0 0.0
2014-Aug-27 17:32N 59°54' E 030°14'0 0.0
2014-Aug-27 16:32N 59°54' E 030°14'0 0.0
2014-Aug-27 15:32N 59°54' E 030°14'0 0.0
2014-Aug-27 14:32N 59°54' E 030°14'0 0.0
2014-Aug-27 13:32N 59°54' E 030°14'0 0.0
2014-Aug-27 12:32N 59°54' E 030°14'0 0.0
2014-Aug-27 11:29N 59°54' E 030°14'0 0.0
2014-Aug-27 10:32N 59°54' E 030°14'0 0.0
2014-Aug-27 09:29N 59°54' E 030°14'0 0.0
2014-Aug-27 08:32N 59°54' E 030°14'0 0.0
2014-Aug-27 07:29N 59°54' E 030°14'0 0.0
2014-Aug-27 06:32N 59°54' E 030°14'0 0.0
2014-Aug-27 05:23N 59°54' E 030°14'0 0.0
2014-Aug-27 04:29N 59°54' E 030°14'0 0.0
2014-Aug-27 03:32N 59°54' E 030°14'0 0.0
2014-Aug-27 02:32N 59°54' E 030°14'0 0.0
2014-Aug-27 01:32N 59°54' E 030°14'0 0.0
2014-Aug-27 00:26N 59°54' E 030°14'0 0.0
2014-Aug-26 23:32N 59°54' E 030°14'0 0.0
2014-Aug-26 21:32N 59°54' E 030°14'0 0.0
2014-Aug-26 20:32N 59°54' E 030°14'0 0.0
2014-Aug-26 19:32N 59°54' E 030°14'0 0.0
2014-Aug-26 18:20N 59°54' E 030°14'0 0.0
2014-Aug-26 17:26N 59°54' E 030°14'0 0.0
2014-Aug-26 16:32N 59°54' E 030°14'0 0.0
2014-Aug-26 15:32N 59°54' E 030°14'0 0.0
2014-Aug-26 14:26N 59°54' E 030°14'0 0.0
2014-Aug-26 13:26N 59°54' E 030°14'0 0.0
2014-Aug-26 12:32N 59°54' E 030°14'0 0.0
2014-Aug-26 11:29N 59°54' E 030°14'0 0.0
2014-Aug-26 10:29N 59°54' E 030°14'0 0.0
2014-Aug-26 09:33N 59°54' E 030°14'0 0.0
2014-Aug-26 08:33N 59°54' E 030°14'0 0.0
2014-Aug-26 07:33N 59°54' E 030°14'0 0.0
2014-Aug-26 06:33N 59°54' E 030°14'0 0.0
2014-Aug-26 05:33N 59°54' E 030°14'0 0.0
2014-Aug-26 04:33N 59°54' E 030°14'0 0.0
2014-Aug-26 03:33N 59°54' E 030°14'0 0.3
2014-Aug-26 02:33N 59°55' E 030°14'6 6.5
2014-Aug-26 01:33N 59°55' E 030°01'  
Track history (hours):
 
Tides and Currents Weather Stations Pressure Air Temp Water Temp Dewpoint Dewpoint Depression Visibility Wind Speed Wind Dir Waves Ship Positions

Celine

Last reported at 2014-Sep-04 20:22 UTC. Time now 2014-Sep-18 01:41 UTC.
Position N 50°14' W 001°32'.
Warning: this ship's position is 13 days out of date.

Length 129 m; draft 7.7 m.

Type: Cargo ship. MMSI: 269057000.

Date/timePositionNaut miles runAvg speedWind from/ knotsBaromVisibWave heightAir tempDewpointWater temp
2014-Sep-04 20:22N 50°14' W 001°32'1214.7
2014-Sep-04 19:33N 50°17' W 001°13'1413.8
2014-Sep-04 18:34N 50°20' W 000°52'1312.6
2014-Sep-04 17:30N 50°24' W 000°32'1212.2
2014-Sep-04 16:34N 50°27' W 000°15'1412.0
2014-Sep-04 15:23N 50°30' E 000°07'1012.1
2014-Sep-04 14:33N 50°33' E 000°22'1312.7
2014-Sep-04 13:34N 50°38' E 000°40'1413.7
2014-Sep-04 12:33N 50°45' E 000°58'1414.1
2014-Sep-04 11:33N 50°54' E 001°17'1413.7
2014-Sep-04 10:34N 51°04' E 001°31'1312.6
2014-Sep-04 09:33N 51°13' E 001°45'1212.1
2014-Sep-04 08:33N 51°23' E 001°55'1212.1
2014-Sep-04 07:34N 51°33' E 002°07'1212.2
2014-Sep-04 06:33N 51°42' E 002°19'6913.7
2014-Sep-04 01:29N 52°36' E 003°30'1213.4
2014-Sep-04 00:33N 52°46' E 003°43'2612.5
2014-Sep-03 22:27N 53°05' E 004°13'1111.8
2014-Sep-03 21:33N 53°12' E 004°26'1212.1
2014-Sep-03 20:33N 53°23' E 004°34'1312.6
2014-Sep-03 19:33N 53°31' E 004°50'1414.4
2014-Sep-03 18:33N 53°36' E 005°13'1414.1
2014-Sep-03 17:33N 53°41' E 005°36'1413.7
2014-Sep-03 16:33N 53°45' E 005°58'5512.4
2014-Sep-03 12:06N 53°60' E 007°28'712.8
2014-Sep-03 11:33N 54°02' E 007°39'1413.6
2014-Sep-03 10:33N 54°01' E 008°02'1313.1
2014-Sep-03 09:33N 53°59' E 008°25'1313.4
2014-Sep-03 08:34N 53°52' E 008°44'1313.3
2014-Sep-03 07:33N 53°53' E 009°06'2 1.7
2014-Sep-03 06:33N 53°54' E 009°09'7 6.9
2014-Sep-03 05:33N 53°59' E 009°17'8 8.3
2014-Sep-03 04:33N 54°07' E 009°20'8 7.7
2014-Sep-03 03:33N 54°11' E 009°30'3 3.2
2014-Sep-03 02:33N 54°13' E 009°35'5 5.0
2014-Sep-03 01:33N 54°17' E 009°39'8 7.6
2014-Sep-03 00:32N 54°22' E 009°50'6 4.5
2014-Sep-02 23:13N 54°21' E 010°00'51 6.6
2014-Sep-02 15:31N 54°32' E 011°26'1313.9
2014-Sep-02 14:33N 54°26' E 011°47'1313.2
2014-Sep-02 13:33N 54°28' E 012°10'1313.1
2014-Sep-02 12:34N 54°39' E 012°21'1313.2
2014-Sep-02 11:33N 54°46' E 012°40'1313.0
2014-Sep-02 10:33N 54°51' E 013°01'1413.7
2014-Sep-02 09:33N 54°55' E 013°23'1313.6
2014-Sep-02 08:34N 55°00' E 013°45'1313.4
2014-Sep-02 07:33N 55°05' E 014°07'1313.3
2014-Sep-02 06:33N 55°16' E 014°22'1413.5
2014-Sep-02 05:33N 55°26' E 014°37'1313.3
2014-Sep-02 04:33N 55°32' E 014°58'1313.3
2014-Sep-02 03:33N 55°39' E 015°18'34312.7
2014-Sep-01 00:31N 59°35' E 023°02'1313.2
2014-Aug-31 23:33N 59°39' E 023°26'1313.2
2014-Aug-31 22:34N 59°43' E 023°51'1313.2
2014-Aug-31 21:33N 59°46' E 024°16'1313.4
2014-Aug-31 20:33N 59°49' E 024°43'4413.3
2014-Aug-31 17:15N 59°58' E 026°08'913.1
2014-Aug-31 16:33N 60°00' E 026°26'1313.1
2014-Aug-31 15:33N 59°60' E 026°52'1312.6
2014-Aug-31 14:33N 60°03' E 027°16'8411.9
2014-Aug-31 07:34N 59°55' E 030°02'6 1.9
2014-Aug-31 04:33N 59°54' E 030°14'0 0.0
2014-Aug-31 03:27N 59°54' E 030°14'0 0.0
2014-Aug-31 02:33N 59°54' E 030°14'0 0.0
2014-Aug-31 01:27N 59°54' E 030°14'0 0.0
2014-Aug-31 00:18N 59°54' E 030°14'0 0.0
2014-Aug-30 23:33N 59°54' E 030°14'0 0.0
2014-Aug-30 22:33N 59°54' E 030°14'0 0.0
2014-Aug-30 21:33N 59°54' E 030°14'0 0.0
2014-Aug-30 20:33N 59°54' E 030°14'0 0.0
2014-Aug-30 19:27N 59°54' E 030°14'0 0.0
2014-Aug-30 18:33N 59°54' E 030°14'0 0.0
2014-Aug-30 17:30N 59°54' E 030°14'0 0.0
2014-Aug-30 16:27N 59°54' E 030°14'0 0.0
2014-Aug-30 15:12N 59°54' E 030°14'0 0.0
2014-Aug-30 14:33N 59°54' E 030°14'0 0.0
2014-Aug-30 12:09N 59°54' E 030°14'0 0.0
2014-Aug-30 11:33N 59°54' E 030°14'0 0.0
2014-Aug-30 10:30N 59°54' E 030°14'0 0.0
2014-Aug-30 09:33N 59°54' E 030°14'0 0.0
2014-Aug-30 08:33N 59°54' E 030°14'0 0.0
2014-Aug-30 07:33N 59°54' E 030°14'0 0.0
2014-Aug-30 06:33N 59°54' E 030°14'0 0.0
2014-Aug-30 01:09N 59°54' E 030°14'0 0.0
2014-Aug-30 00:30N 59°54' E 030°14'0 0.0
2014-Aug-29 21:33N 59°54' E 030°14'0 0.0
2014-Aug-29 20:30N 59°54' E 030°14'0 0.0
2014-Aug-29 19:30N 59°54' E 030°14'0 0.0
2014-Aug-29 18:29N 59°54' E 030°14'0 0.0
2014-Aug-29 17:33N 59°54' E 030°14'0 0.0
2014-Aug-29 16:30N 59°54' E 030°14'0 0.0
2014-Aug-29 15:33N 59°54' E 030°14'0 0.0
2014-Aug-29 14:33N 59°54' E 030°14'0 0.0
2014-Aug-29 13:32N 59°54' E 030°14'0 0.0
2014-Aug-29 12:33N 59°54' E 030°14'0 0.0
2014-Aug-29 11:32N 59°54' E 030°14'0 0.0
2014-Aug-29 10:32N 59°54' E 030°14'0 0.0
2014-Aug-29 09:32N 59°54' E 030°14'0 0.0
2014-Aug-29 08:33N 59°54' E 030°14'0 0.0
2014-Aug-29 07:29N 59°54' E 030°14'0 0.0
2014-Aug-29 06:32N 59°54' E 030°14'0 0.0
2014-Aug-29 05:32N 59°54' E 030°14'0 0.0
2014-Aug-29 03:29N 59°54' E 030°14'0 0.0
2014-Aug-29 02:32N 59°54' E 030°14'0 0.0
2014-Aug-29 01:32N 59°54' E 030°14'0 0.0
2014-Aug-29 00:32N 59°54' E 030°14'0 0.0
2014-Aug-28 23:32N 59°54' E 030°14'0 0.0
2014-Aug-28 22:32N 59°54' E 030°14'0 0.0
2014-Aug-28 21:32N 59°54' E 030°14'0 0.0
2014-Aug-28 20:21N 59°54' E 030°14'0 0.0
2014-Aug-28 19:32N 59°54' E 030°14'0 0.0
2014-Aug-28 18:32N 59°54' E 030°14'0 0.0
2014-Aug-28 17:32N 59°54' E 030°14'0 0.0
2014-Aug-28 16:32N 59°54' E 030°14'0 0.0
2014-Aug-28 15:32N 59°54' E 030°14'0 0.0
2014-Aug-28 14:32N 59°54' E 030°14'0 0.0
2014-Aug-28 13:29N 59°54' E 030°14'0 0.0
2014-Aug-28 12:32N 59°54' E 030°14'0 0.0
2014-Aug-28 11:32N 59°54' E 030°14'0 0.0
2014-Aug-28 10:32N 59°54' E 030°14'0 0.0
2014-Aug-28 09:32N 59°54' E 030°14'0 0.0
2014-Aug-28 08:29N 59°54' E 030°14'0 0.0
2014-Aug-28 07:32N 59°54' E 030°14'0 0.0
2014-Aug-28 06:32N 59°54' E 030°14'0 0.0
2014-Aug-28 05:32N 59°54' E 030°14'0 0.0
2014-Aug-28 04:32N 59°54' E 030°14'0 0.0
2014-Aug-28 03:32N 59°54' E 030°14'0 0.0
2014-Aug-28 02:32N 59°54' E 030°14'0 0.0
2014-Aug-28 01:32N 59°54' E 030°14'0 0.0
2014-Aug-28 00:32N 59°54' E 030°14'0 0.0
2014-Aug-27 23:32N 59°54' E 030°14'0 0.0
2014-Aug-27 22:32N 59°54' E 030°14'0 0.0
2014-Aug-27 21:32N 59°54' E 030°14'0 0.0
2014-Aug-27 20:32N 59°54' E 030°14'0 0.0
2014-Aug-27 19:32N 59°54' E 030°14'0 0.0
2014-Aug-27 18:32N 59°54' E 030°14'0 0.0
2014-Aug-27 17:32N 59°54' E 030°14'0 0.0
2014-Aug-27 16:32N 59°54' E 030°14'0 0.0
2014-Aug-27 15:32N 59°54' E 030°14'0 0.0
2014-Aug-27 14:32N 59°54' E 030°14'0 0.0
2014-Aug-27 13:32N 59°54' E 030°14'0 0.0
2014-Aug-27 12:32N 59°54' E 030°14'0 0.0
2014-Aug-27 11:29N 59°54' E 030°14'0 0.0
2014-Aug-27 10:32N 59°54' E 030°14'0 0.0
2014-Aug-27 09:29N 59°54' E 030°14'0 0.0
2014-Aug-27 08:32N 59°54' E 030°14'0 0.0
2014-Aug-27 07:29N 59°54' E 030°14'0 0.0
2014-Aug-27 06:32N 59°54' E 030°14'0 0.0
2014-Aug-27 05:23N 59°54' E 030°14'0 0.0
2014-Aug-27 04:29N 59°54' E 030°14'0 0.0
2014-Aug-27 03:32N 59°54' E 030°14'0 0.0
2014-Aug-27 02:32N 59°54' E 030°14'0 0.0
2014-Aug-27 01:32N 59°54' E 030°14'0 0.0
2014-Aug-27 00:26N 59°54' E 030°14'0 0.0
2014-Aug-26 23:32N 59°54' E 030°14'0 0.0
2014-Aug-26 21:32N 59°54' E 030°14'0 0.0
2014-Aug-26 20:32N 59°54' E 030°14'0 0.0
2014-Aug-26 19:32N 59°54' E 030°14'0 0.0
2014-Aug-26 18:20N 59°54' E 030°14'0 0.0
2014-Aug-26 17:26N 59°54' E 030°14'0 0.0
2014-Aug-26 16:32N 59°54' E 030°14'0 0.0
2014-Aug-26 15:32N 59°54' E 030°14'0 0.0
2014-Aug-26 14:26N 59°54' E 030°14'0 0.0
2014-Aug-26 13:26N 59°54' E 030°14'0 0.0
2014-Aug-26 12:32N 59°54' E 030°14'0 0.0
2014-Aug-26 11:29N 59°54' E 030°14'0 0.0
2014-Aug-26 10:29N 59°54' E 030°14'0 0.0
2014-Aug-26 09:33N 59°54' E 030°14'0 0.0
2014-Aug-26 08:33N 59°54' E 030°14'0 0.0
2014-Aug-26 07:33N 59°54' E 030°14'0 0.0
2014-Aug-26 06:33N 59°54' E 030°14'0 0.0
2014-Aug-26 05:33N 59°54' E 030°14'0 0.0
2014-Aug-26 04:33N 59°54' E 030°14'0 0.0
2014-Aug-26 03:33N 59°54' E 030°14'0 0.3
2014-Aug-26 02:33N 59°55' E 030°14'6 6.5
2014-Aug-26 01:33N 59°55' E 030°01'  

Dump ship's entire track history